Pisgah, Ohio
Current Conditions -  °F | °C
As of 7:53 PM on Saturday 22 Nov 2014 (Local Time) from KHAO Reporting Station
Overcast Overcast  
Wind Chill: 57°   Ceiling: 8000
Heat Index: 57°   Visibility: 10mi
Dew Point: 35°   Wind: 6mph
Humidity: 44%   Direction: 200°SSW
Pressure: 30.08"   Gusts: NA
Location:  39.3413°N, 84.4053°W
Report Text: KHAO 230053Z AUTO 20005KT 10SM FEW060 OVC080 14/02 A3008 RMK AO2 SLP190 T01390017
Loading
Personal Weather Stations






























Interactive Weather Map New forecast layout! Learn more

10-Day Weather Forecast

Advertisements
Track Severe Weather on mobile